sensor_id;sensor_type;location;lat;lon;timestamp;temperature;humidity
36654;DHT22;22650;49.350;20.898;2023-08-06T00:02:13;19.50;99.90
36654;DHT22;22650;49.350;20.898;2023-08-06T00:04:47;19.50;99.90
36654;DHT22;22650;49.350;20.898;2023-08-06T00:07:20;19.50;99.90
36654;DHT22;22650;49.350;20.898;2023-08-06T00:09:54;19.50;99.90
36654;DHT22;22650;49.350;20.898;2023-08-06T00:12:27;19.50;99.90
36654;DHT22;22650;49.350;20.898;2023-08-06T00:15:03;19.50;99.90
36654;DHT22;22650;49.350;20.898;2023-08-06T00:17:37;19.40;99.90
36654;DHT22;22650;49.350;20.898;2023-08-06T00:20:11;19.40;99.90
36654;DHT22;22650;49.350;20.898;2023-08-06T00:22:44;19.40;99.90
36654;DHT22;22650;49.350;20.898;2023-08-06T00:25:18;19.40;99.90
36654;DHT22;22650;49.350;20.898;2023-08-06T00:27:52;19.40;99.90
36654;DHT22;22650;49.350;20.898;2023-08-06T00:30:27;19.30;99.90
36654;DHT22;22650;49.350;20.898;2023-08-06T00:33:00;19.30;99.90
36654;DHT22;22650;49.350;20.898;2023-08-06T00:35:34;19.30;99.90
36654;DHT22;22650;49.350;20.898;2023-08-06T00:38:07;19.30;99.90
36654;DHT22;22650;49.350;20.898;2023-08-06T00:40:41;19.20;99.90
36654;DHT22;22650;49.350;20.898;2023-08-06T00:43:15;19.20;99.90
36654;DHT22;22650;49.350;20.898;2023-08-06T00:45:51;19.20;99.90
36654;DHT22;22650;49.350;20.898;2023-08-06T00:48:24;19.20;99.90
36654;DHT22;22650;49.350;20.898;2023-08-06T00:50:58;19.20;99.90
36654;DHT22;22650;49.350;20.898;2023-08-06T00:53:32;19.20;99.90
36654;DHT22;22650;49.350;20.898;2023-08-06T00:56:06;19.20;99.90
36654;DHT22;22650;49.350;20.898;2023-08-06T00:58:40;19.10;99.90
36654;DHT22;22650;49.350;20.898;2023-08-06T01:01:15;19.10;99.90
36654;DHT22;22650;49.350;20.898;2023-08-06T01:03:49;19.00;99.90
36654;DHT22;22650;49.350;20.898;2023-08-06T01:06:33;19.00;99.90
36654;DHT22;22650;49.350;20.898;2023-08-06T01:09:21;19.00;99.90
36654;DHT22;22650;49.350;20.898;2023-08-06T01:12:05;19.00;99.90
36654;DHT22;22650;49.350;20.898;2023-08-06T01:14:48;18.90;99.90
36654;DHT22;22650;49.350;20.898;2023-08-06T01:17:26;18.90;99.90
36654;DHT22;22650;49.350;20.898;2023-08-06T01:20:01;18.90;99.90
36654;DHT22;22650;49.350;20.898;2023-08-06T01:22:36;18.90;99.90
36654;DHT22;22650;49.350;20.898;2023-08-06T01:25:09;18.80;99.90
36654;DHT22;22650;49.350;20.898;2023-08-06T01:27:46;18.80;99.90
36654;DHT22;22650;49.350;20.898;2023-08-06T01:30:26;18.80;99.90
36654;DHT22;22650;49.350;20.898;2023-08-06T01:33:04;18.70;99.90
36654;DHT22;22650;49.350;20.898;2023-08-06T01:35:38;18.70;99.90
36654;DHT22;22650;49.350;20.898;2023-08-06T01:38:13;18.70;99.90
36654;DHT22;22650;49.350;20.898;2023-08-06T01:40:47;18.60;99.90
36654;DHT22;22650;49.350;20.898;2023-08-06T01:43:21;18.60;99.90
36654;DHT22;22650;49.350;20.898;2023-08-06T01:45:55;18.60;99.90
36654;DHT22;22650;49.350;20.898;2023-08-06T01:48:29;18.60;99.90
36654;DHT22;22650;49.350;20.898;2023-08-06T01:51:04;18.60;99.90
36654;DHT22;22650;49.350;20.898;2023-08-06T01:53:39;18.60;99.90
36654;DHT22;22650;49.350;20.898;2023-08-06T01:56:13;18.60;99.90
36654;DHT22;22650;49.350;20.898;2023-08-06T01:58:46;18.60;99.90
36654;DHT22;22650;49.350;20.898;2023-08-06T02:01:20;18.60;99.90
36654;DHT22;22650;49.350;20.898;2023-08-06T02:03:54;18.60;99.90
36654;DHT22;22650;49.350;20.898;2023-08-06T02:06:27;18.60;99.90
36654;DHT22;22650;49.350;20.898;2023-08-06T02:09:02;18.60;99.90
36654;DHT22;22650;49.350;20.898;2023-08-06T02:11:36;18.60;99.90
36654;DHT22;22650;49.350;20.898;2023-08-06T02:14:09;18.60;99.90
36654;DHT22;22650;49.350;20.898;2023-08-06T02:16:44;18.70;99.90
36654;DHT22;22650;49.350;20.898;2023-08-06T02:19:17;18.70;99.90
36654;DHT22;22650;49.350;20.898;2023-08-06T02:21:51;18.70;99.90
36654;DHT22;22650;49.350;20.898;2023-08-06T02:24:28;18.70;99.90
36654;DHT22;22650;49.350;20.898;2023-08-06T02:27:01;18.80;99.90
36654;DHT22;22650;49.350;20.898;2023-08-06T02:29:35;18.80;99.90
36654;DHT22;22650;49.350;20.898;2023-08-06T02:32:09;18.80;99.90
36654;DHT22;22650;49.350;20.898;2023-08-06T02:34:43;18.80;99.90
36654;DHT22;22650;49.350;20.898;2023-08-06T02:37:16;18.80;99.90
36654;DHT22;22650;49.350;20.898;2023-08-06T02:39:51;18.80;99.90
36654;DHT22;22650;49.350;20.898;2023-08-06T02:42:25;18.80;99.90
36654;DHT22;22650;49.350;20.898;2023-08-06T02:44:59;18.80;99.90
36654;DHT22;22650;49.350;20.898;2023-08-06T02:47:33;18.80;99.90
36654;DHT22;22650;49.350;20.898;2023-08-06T02:50:07;18.80;99.90
36654;DHT22;22650;49.350;20.898;2023-08-06T02:52:41;18.90;99.90
36654;DHT22;22650;49.350;20.898;2023-08-06T02:55:16;18.80;99.90
36654;DHT22;22650;49.350;20.898;2023-08-06T02:57:52;18.80;99.90
36654;DHT22;22650;49.350;20.898;2023-08-06T03:00:26;18.90;99.90
36654;DHT22;22650;49.350;20.898;2023-08-06T03:03:00;18.90;99.90
36654;DHT22;22650;49.350;20.898;2023-08-06T03:05:52;18.90;99.90
36654;DHT22;22650;49.350;20.898;2023-08-06T03:08:36;18.90;99.90
36654;DHT22;22650;49.350;20.898;2023-08-06T03:11:11;18.90;99.90
36654;DHT22;22650;49.350;20.898;2023-08-06T03:13:47;18.90;99.90
36654;DHT22;22650;49.350;20.898;2023-08-06T03:16:21;19.00;99.90
36654;DHT22;22650;49.350;20.898;2023-08-06T03:18:55;19.00;99.90
36654;DHT22;22650;49.350;20.898;2023-08-06T03:21:28;19.00;99.90
36654;DHT22;22650;49.350;20.898;2023-08-06T03:24:03;19.00;99.90
36654;DHT22;22650;49.350;20.898;2023-08-06T03:26:40;19.00;99.90
36654;DHT22;22650;49.350;20.898;2023-08-06T03:29:15;19.00;99.90
36654;DHT22;22650;49.350;20.898;2023-08-06T03:31:52;19.00;99.90
36654;DHT22;22650;49.350;20.898;2023-08-06T03:34:25;19.00;99.90
36654;DHT22;22650;49.350;20.898;2023-08-06T03:36:59;19.00;99.90
36654;DHT22;22650;49.350;20.898;2023-08-06T03:39:33;19.00;99.90
36654;DHT22;22650;49.350;20.898;2023-08-06T03:42:08;19.00;99.90
36654;DHT22;22650;49.350;20.898;2023-08-06T03:44:42;19.00;99.90
36654;DHT22;22650;49.350;20.898;2023-08-06T03:47:16;19.00;99.90
36654;DHT22;22650;49.350;20.898;2023-08-06T03:49:53;19.00;99.90
36654;DHT22;22650;49.350;20.898;2023-08-06T03:52:27;19.00;99.90
36654;DHT22;22650;49.350;20.898;2023-08-06T03:55:00;19.00;99.90
36654;DHT22;22650;49.350;20.898;2023-08-06T03:57:36;19.00;99.90
36654;DHT22;22650;49.350;20.898;2023-08-06T04:00:10;19.10;99.90
36654;DHT22;22650;49.350;20.898;2023-08-06T04:02:47;19.10;99.90
36654;DHT22;22650;49.350;20.898;2023-08-06T04:05:21;19.10;99.90
36654;DHT22;22650;49.350;20.898;2023-08-06T04:07:55;19.10;99.90
36654;DHT22;22650;49.350;20.898;2023-08-06T04:10:28;19.20;99.90
36654;DHT22;22650;49.350;20.898;2023-08-06T04:13:03;19.20;99.90
36654;DHT22;22650;49.350;20.898;2023-08-06T04:15:37;19.20;99.90
36654;DHT22;22650;49.350;20.898;2023-08-06T04:18:10;19.20;99.90
36654;DHT22;22650;49.350;20.898;2023-08-06T04:20:44;19.30;99.90
36654;DHT22;22650;49.350;20.898;2023-08-06T04:23:18;19.30;99.90
36654;DHT22;22650;49.350;20.898;2023-08-06T04:25:56;19.30;99.90
36654;DHT22;22650;49.350;20.898;2023-08-06T04:28:34;19.30;99.90
36654;DHT22;22650;49.350;20.898;2023-08-06T04:31:08;19.30;99.90
36654;DHT22;22650;49.350;20.898;2023-08-06T04:33:44;19.30;99.90
36654;DHT22;22650;49.350;20.898;2023-08-06T04:36:20;19.30;99.90
36654;DHT22;22650;49.350;20.898;2023-08-06T04:38:53;19.30;99.90
36654;DHT22;22650;49.350;20.898;2023-08-06T04:41:27;19.30;99.90
36654;DHT22;22650;49.350;20.898;2023-08-06T04:44:02;19.30;99.90
36654;DHT22;22650;49.350;20.898;2023-08-06T04:46:36;19.40;99.90
36654;DHT22;22650;49.350;20.898;2023-08-06T04:49:10;19.40;99.90
36654;DHT22;22650;49.350;20.898;2023-08-06T04:51:44;19.30;99.90
36654;DHT22;22650;49.350;20.898;2023-08-06T04:54:17;19.30;99.90
36654;DHT22;22650;49.350;20.898;2023-08-06T04:56:51;19.40;99.90
36654;DHT22;22650;49.350;20.898;2023-08-06T04:59:26;19.40;99.90
36654;DHT22;22650;49.350;20.898;2023-08-06T05:01:59;19.40;99.90
36654;DHT22;22650;49.350;20.898;2023-08-06T05:04:33;19.40;99.90
36654;DHT22;22650;49.350;20.898;2023-08-06T05:07:06;19.40;99.90
36654;DHT22;22650;49.350;20.898;2023-08-06T05:09:40;19.50;99.90
36654;DHT22;22650;49.350;20.898;2023-08-06T05:12:14;19.50;99.90
36654;DHT22;22650;49.350;20.898;2023-08-06T05:14:49;19.50;99.90
36654;DHT22;22650;49.350;20.898;2023-08-06T05:17:23;19.50;99.90
36654;DHT22;22650;49.350;20.898;2023-08-06T05:19:56;19.50;99.90
36654;DHT22;22650;49.350;20.898;2023-08-06T05:22:30;19.60;99.90
36654;DHT22;22650;49.350;20.898;2023-08-06T05:25:04;19.50;99.90
36654;DHT22;22650;49.350;20.898;2023-08-06T05:27:38;19.60;99.90
36654;DHT22;22650;49.350;20.898;2023-08-06T05:30:13;19.50;99.90
36654;DHT22;22650;49.350;20.898;2023-08-06T05:32:47;19.60;99.90
36654;DHT22;22650;49.350;20.898;2023-08-06T05:35:20;19.60;99.90
36654;DHT22;22650;49.350;20.898;2023-08-06T05:37:54;19.60;99.90
36654;DHT22;22650;49.350;20.898;2023-08-06T05:40:28;19.70;99.90
36654;DHT22;22650;49.350;20.898;2023-08-06T05:43:01;19.70;99.90
36654;DHT22;22650;49.350;20.898;2023-08-06T05:45:36;19.70;99.90
36654;DHT22;22650;49.350;20.898;2023-08-06T05:48:10;19.70;99.90
36654;DHT22;22650;49.350;20.898;2023-08-06T05:50:44;19.80;99.90
36654;DHT22;22650;49.350;20.898;2023-08-06T05:53:17;19.80;99.90
36654;DHT22;22650;49.350;20.898;2023-08-06T05:55:51;19.80;99.90
36654;DHT22;22650;49.350;20.898;2023-08-06T05:58:24;19.90;99.90
36654;DHT22;22650;49.350;20.898;2023-08-06T06:01:02;19.90;99.90
36654;DHT22;22650;49.350;20.898;2023-08-06T06:03:36;20.00;99.90
36654;DHT22;22650;49.350;20.898;2023-08-06T06:06:09;20.00;99.90
36654;DHT22;22650;49.350;20.898;2023-08-06T06:08:44;20.10;99.90
36654;DHT22;22650;49.350;20.898;2023-08-06T06:11:18;20.20;99.90
36654;DHT22;22650;49.350;20.898;2023-08-06T06:13:54;20.20;99.90
36654;DHT22;22650;49.350;20.898;2023-08-06T06:16:29;20.30;99.90
36654;DHT22;22650;49.350;20.898;2023-08-06T06:19:02;20.30;99.90
36654;DHT22;22650;49.350;20.898;2023-08-06T06:21:36;20.30;99.90
36654;DHT22;22650;49.350;20.898;2023-08-06T06:24:10;20.20;99.90
36654;DHT22;22650;49.350;20.898;2023-08-06T06:26:45;20.20;99.90
36654;DHT22;22650;49.350;20.898;2023-08-06T06:29:18;20.20;99.90
36654;DHT22;22650;49.350;20.898;2023-08-06T06:31:53;20.20;99.90
36654;DHT22;22650;49.350;20.898;2023-08-06T06:34:27;20.20;99.90
36654;DHT22;22650;49.350;20.898;2023-08-06T06:37:01;20.20;99.90
36654;DHT22;22650;49.350;20.898;2023-08-06T06:39:34;20.20;99.90
36654;DHT22;22650;49.350;20.898;2023-08-06T06:42:08;20.20;99.90
36654;DHT22;22650;49.350;20.898;2023-08-06T06:44:48;20.20;99.90
36654;DHT22;22650;49.350;20.898;2023-08-06T06:47:23;20.10;99.90
36654;DHT22;22650;49.350;20.898;2023-08-06T06:49:56;20.10;99.90
36654;DHT22;22650;49.350;20.898;2023-08-06T06:52:30;20.00;99.90
36654;DHT22;22650;49.350;20.898;2023-08-06T06:55:04;20.10;99.90
36654;DHT22;22650;49.350;20.898;2023-08-06T06:57:38;20.10;99.90
36654;DHT22;22650;49.350;20.898;2023-08-06T07:00:12;20.10;99.90
36654;DHT22;22650;49.350;20.898;2023-08-06T07:02:47;20.10;99.90
36654;DHT22;22650;49.350;20.898;2023-08-06T07:05:20;20.10;99.90
36654;DHT22;22650;49.350;20.898;2023-08-06T07:07:54;20.10;99.90
36654;DHT22;22650;49.350;20.898;2023-08-06T07:10:27;20.10;99.90
36654;DHT22;22650;49.350;20.898;2023-08-06T07:13:01;20.10;99.90
36654;DHT22;22650;49.350;20.898;2023-08-06T07:15:35;20.10;99.90
36654;DHT22;22650;49.350;20.898;2023-08-06T07:18:10;20.10;99.90
36654;DHT22;22650;49.350;20.898;2023-08-06T07:20:48;20.00;99.90
36654;DHT22;22650;49.350;20.898;2023-08-06T07:23:23;20.00;99.90
36654;DHT22;22650;49.350;20.898;2023-08-06T07:25:57;20.00;99.90
36654;DHT22;22650;49.350;20.898;2023-08-06T07:28:31;19.90;99.90
36654;DHT22;22650;49.350;20.898;2023-08-06T07:31:04;19.90;99.90
36654;DHT22;22650;49.350;20.898;2023-08-06T07:33:42;20.00;99.90
36654;DHT22;22650;49.350;20.898;2023-08-06T07:36:15;19.90;99.90
36654;DHT22;22650;49.350;20.898;2023-08-06T07:38:49;19.90;99.90
36654;DHT22;22650;49.350;20.898;2023-08-06T07:41:27;19.90;99.90
36654;DHT22;22650;49.350;20.898;2023-08-06T07:44:01;19.90;99.90
36654;DHT22;22650;49.350;20.898;2023-08-06T07:46:35;19.90;99.90
36654;DHT22;22650;49.350;20.898;2023-08-06T07:49:10;19.90;99.90
36654;DHT22;22650;49.350;20.898;2023-08-06T07:51:44;19.90;99.90
36654;DHT22;22650;49.350;20.898;2023-08-06T07:54:17;19.90;99.90
36654;DHT22;22650;49.350;20.898;2023-08-06T07:56:51;19.90;99.90
36654;DHT22;22650;49.350;20.898;2023-08-06T07:59:25;19.80;99.90
36654;DHT22;22650;49.350;20.898;2023-08-06T08:01:58;19.80;99.90
36654;DHT22;22650;49.350;20.898;2023-08-06T08:04:33;19.80;99.90
36654;DHT22;22650;49.350;20.898;2023-08-06T08:07:09;19.80;99.90
36654;DHT22;22650;49.350;20.898;2023-08-06T08:09:42;19.80;99.90
36654;DHT22;22650;49.350;20.898;2023-08-06T08:12:16;19.80;99.90
36654;DHT22;22650;49.350;20.898;2023-08-06T08:14:49;19.90;99.90
36654;DHT22;22650;49.350;20.898;2023-08-06T08:17:23;19.90;99.90
36654;DHT22;22650;49.350;20.898;2023-08-06T08:19:58;19.90;99.90
36654;DHT22;22650;49.350;20.898;2023-08-06T08:22:32;20.00;99.90
36654;DHT22;22650;49.350;20.898;2023-08-06T08:25:06;20.00;99.90
36654;DHT22;22650;49.350;20.898;2023-08-06T08:27:39;20.10;99.90
36654;DHT22;22650;49.350;20.898;2023-08-06T08:30:13;20.20;99.90
36654;DHT22;22650;49.350;20.898;2023-08-06T08:32:47;20.20;99.90
36654;DHT22;22650;49.350;20.898;2023-08-06T08:35:23;20.20;99.90
36654;DHT22;22650;49.350;20.898;2023-08-06T08:37:56;20.20;99.90
36654;DHT22;22650;49.350;20.898;2023-08-06T08:40:31;20.20;99.90
36654;DHT22;22650;49.350;20.898;2023-08-06T08:43:05;20.20;99.90
36654;DHT22;22650;49.350;20.898;2023-08-06T08:45:40;20.30;99.90
36654;DHT22;22650;49.350;20.898;2023-08-06T08:48:16;20.30;99.90
36654;DHT22;22650;49.350;20.898;2023-08-06T08:50:53;20.30;99.90
36654;DHT22;22650;49.350;20.898;2023-08-06T08:53:27;20.30;99.90
36654;DHT22;22650;49.350;20.898;2023-08-06T08:56:01;20.30;99.90
36654;DHT22;22650;49.350;20.898;2023-08-06T08:58:35;20.30;99.90
36654;DHT22;22650;49.350;20.898;2023-08-06T09:01:09;20.40;99.90
36654;DHT22;22650;49.350;20.898;2023-08-06T09:03:43;20.40;99.90
36654;DHT22;22650;49.350;20.898;2023-08-06T09:06:19;20.40;99.90
36654;DHT22;22650;49.350;20.898;2023-08-06T09:09:00;20.50;99.90
36654;DHT22;22650;49.350;20.898;2023-08-06T09:11:43;20.60;99.90
36654;DHT22;22650;49.350;20.898;2023-08-06T09:14:17;20.70;99.90
36654;DHT22;22650;49.350;20.898;2023-08-06T09:16:51;20.80;99.90
36654;DHT22;22650;49.350;20.898;2023-08-06T09:19:27;20.90;99.90
36654;DHT22;22650;49.350;20.898;2023-08-06T09:22:02;20.90;99.90
36654;DHT22;22650;49.350;20.898;2023-08-06T09:24:38;20.90;99.90
36654;DHT22;22650;49.350;20.898;2023-08-06T09:27:13;21.00;99.90
36654;DHT22;22650;49.350;20.898;2023-08-06T09:29:47;21.00;99.90
36654;DHT22;22650;49.350;20.898;2023-08-06T09:32:20;21.00;99.90
36654;DHT22;22650;49.350;20.898;2023-08-06T09:34:56;21.10;99.90
36654;DHT22;22650;49.350;20.898;2023-08-06T09:37:37;21.10;99.90
36654;DHT22;22650;49.350;20.898;2023-08-06T09:40:26;21.30;99.90
36654;DHT22;22650;49.350;20.898;2023-08-06T09:43:00;21.40;99.90
36654;DHT22;22650;49.350;20.898;2023-08-06T09:45:38;21.40;99.90
36654;DHT22;22650;49.350;20.898;2023-08-06T09:48:11;21.50;99.90
36654;DHT22;22650;49.350;20.898;2023-08-06T09:50:45;21.70;99.90
36654;DHT22;22650;49.350;20.898;2023-08-06T09:53:22;21.70;99.90
36654;DHT22;22650;49.350;20.898;2023-08-06T09:55:56;21.90;99.90
36654;DHT22;22650;49.350;20.898;2023-08-06T09:58:31;22.00;99.90
36654;DHT22;22650;49.350;20.898;2023-08-06T10:01:05;22.10;99.90
36654;DHT22;22650;49.350;20.898;2023-08-06T10:03:40;22.10;99.90
36654;DHT22;22650;49.350;20.898;2023-08-06T10:06:14;22.10;99.90
36654;DHT22;22650;49.350;20.898;2023-08-06T10:08:49;22.10;99.90
36654;DHT22;22650;49.350;20.898;2023-08-06T10:11:24;22.10;99.90
36654;DHT22;22650;49.350;20.898;2023-08-06T10:14:02;22.10;99.90
36654;DHT22;22650;49.350;20.898;2023-08-06T10:16:38;22.20;99.90
36654;DHT22;22650;49.350;20.898;2023-08-06T10:19:13;22.10;99.90
36654;DHT22;22650;49.350;20.898;2023-08-06T10:22:08;22.20;99.90
36654;DHT22;22650;49.350;20.898;2023-08-06T10:24:48;22.30;99.90
36654;DHT22;22650;49.350;20.898;2023-08-06T10:27:28;22.50;99.90
36654;DHT22;22650;49.350;20.898;2023-08-06T10:30:21;22.60;99.90
36654;DHT22;22650;49.350;20.898;2023-08-06T10:32:55;22.80;99.90
36654;DHT22;22650;49.350;20.898;2023-08-06T10:35:31;22.80;99.90
36654;DHT22;22650;49.350;20.898;2023-08-06T10:38:07;23.10;99.90
36654;DHT22;22650;49.350;20.898;2023-08-06T10:40:48;23.30;99.90
36654;DHT22;22650;49.350;20.898;2023-08-06T10:43:25;23.70;99.90
36654;DHT22;22650;49.350;20.898;2023-08-06T10:46:02;24.00;99.90
36654;DHT22;22650;49.350;20.898;2023-08-06T10:48:38;24.30;99.90
36654;DHT22;22650;49.350;20.898;2023-08-06T10:51:13;24.50;99.90
36654;DHT22;22650;49.350;20.898;2023-08-06T10:53:48;24.70;99.90
36654;DHT22;22650;49.350;20.898;2023-08-06T10:56:24;24.90;99.90
36654;DHT22;22650;49.350;20.898;2023-08-06T10:58:59;25.10;99.90
36654;DHT22;22650;49.350;20.898;2023-08-06T11:01:33;25.10;99.90
36654;DHT22;22650;49.350;20.898;2023-08-06T11:04:08;25.10;99.90
36654;DHT22;22650;49.350;20.898;2023-08-06T11:06:52;25.00;99.90
36654;DHT22;22650;49.350;20.898;2023-08-06T11:09:26;24.80;99.90
36654;DHT22;22650;49.350;20.898;2023-08-06T11:12:01;24.70;99.90
36654;DHT22;22650;49.350;20.898;2023-08-06T11:14:34;24.60;99.90
36654;DHT22;22650;49.350;20.898;2023-08-06T11:17:08;24.60;99.90
36654;DHT22;22650;49.350;20.898;2023-08-06T11:19:42;24.70;99.90
36654;DHT22;22650;49.350;20.898;2023-08-06T11:22:17;24.70;99.90
36654;DHT22;22650;49.350;20.898;2023-08-06T11:24:52;24.90;99.90
36654;DHT22;22650;49.350;20.898;2023-08-06T11:27:27;25.20;99.90
36654;DHT22;22650;49.350;20.898;2023-08-06T11:30:01;25.40;99.90
36654;DHT22;22650;49.350;20.898;2023-08-06T11:32:45;25.50;99.90
36654;DHT22;22650;49.350;20.898;2023-08-06T11:35:19;25.70;99.90
36654;DHT22;22650;49.350;20.898;2023-08-06T11:37:53;25.50;99.90
36654;DHT22;22650;49.350;20.898;2023-08-06T11:40:27;25.30;99.90
36654;DHT22;22650;49.350;20.898;2023-08-06T11:43:02;25.10;99.90
36654;DHT22;22650;49.350;20.898;2023-08-06T11:45:36;24.90;99.90
36654;DHT22;22650;49.350;20.898;2023-08-06T11:48:10;24.90;99.90
36654;DHT22;22650;49.350;20.898;2023-08-06T11:50:46;24.70;99.90
36654;DHT22;22650;49.350;20.898;2023-08-06T11:53:20;24.90;99.90
36654;DHT22;22650;49.350;20.898;2023-08-06T11:55:53;25.00;99.90
36654;DHT22;22650;49.350;20.898;2023-08-06T11:58:29;25.10;99.90
36654;DHT22;22650;49.350;20.898;2023-08-06T12:01:03;25.10;99.90
36654;DHT22;22650;49.350;20.898;2023-08-06T12:03:39;25.00;99.90
36654;DHT22;22650;49.350;20.898;2023-08-06T12:06:13;24.80;99.90
36654;DHT22;22650;49.350;20.898;2023-08-06T12:08:46;24.60;99.90
36654;DHT22;22650;49.350;20.898;2023-08-06T12:11:21;24.30;99.90
36654;DHT22;22650;49.350;20.898;2023-08-06T12:13:59;24.00;99.90
36654;DHT22;22650;49.350;20.898;2023-08-06T12:16:36;23.90;99.90
36654;DHT22;22650;49.350;20.898;2023-08-06T12:19:09;23.80;99.90
36654;DHT22;22650;49.350;20.898;2023-08-06T12:21:43;23.80;99.90
36654;DHT22;22650;49.350;20.898;2023-08-06T12:24:17;24.00;99.90
36654;DHT22;22650;49.350;20.898;2023-08-06T12:26:50;24.30;99.90
36654;DHT22;22650;49.350;20.898;2023-08-06T12:29:31;24.40;99.90
36654;DHT22;22650;49.350;20.898;2023-08-06T12:32:05;24.60;99.90
36654;DHT22;22650;49.350;20.898;2023-08-06T12:34:39;24.60;99.90
36654;DHT22;22650;49.350;20.898;2023-08-06T12:37:24;24.90;99.90
36654;DHT22;22650;49.350;20.898;2023-08-06T12:39:58;25.10;99.90
36654;DHT22;22650;49.350;20.898;2023-08-06T12:42:51;25.30;99.90
36654;DHT22;22650;49.350;20.898;2023-08-06T12:45:26;25.30;99.90
36654;DHT22;22650;49.350;20.898;2023-08-06T12:47:59;25.50;99.90
36654;DHT22;22650;49.350;20.898;2023-08-06T12:50:33;25.50;99.90
36654;DHT22;22650;49.350;20.898;2023-08-06T12:53:09;25.50;99.90
36654;DHT22;22650;49.350;20.898;2023-08-06T12:55:43;25.60;99.90
36654;DHT22;22650;49.350;20.898;2023-08-06T12:58:16;25.70;99.90
36654;DHT22;22650;49.350;20.898;2023-08-06T13:00:51;25.70;99.90
36654;DHT22;22650;49.350;20.898;2023-08-06T13:03:26;25.50;99.90
36654;DHT22;22650;49.350;20.898;2023-08-06T13:06:04;25.30;99.90
36654;DHT22;22650;49.350;20.898;2023-08-06T13:08:38;25.30;99.90
36654;DHT22;22650;49.350;20.898;2023-08-06T13:11:12;25.10;99.90
36654;DHT22;22650;49.350;20.898;2023-08-06T13:13:45;25.00;99.90
36654;DHT22;22650;49.350;20.898;2023-08-06T13:16:20;25.00;99.90
36654;DHT22;22650;49.350;20.898;2023-08-06T13:18:54;24.90;99.90
36654;DHT22;22650;49.350;20.898;2023-08-06T13:24:24;24.80;99.90
36654;DHT22;22650;49.350;20.898;2023-08-06T13:26:59;24.80;99.90
36654;DHT22;22650;49.350;20.898;2023-08-06T13:29:33;25.00;99.90
36654;DHT22;22650;49.350;20.898;2023-08-06T13:32:08;25.00;99.90
36654;DHT22;22650;49.350;20.898;2023-08-06T13:34:42;24.80;99.90
36654;DHT22;22650;49.350;20.898;2023-08-06T13:37:15;24.70;99.90
36654;DHT22;22650;49.350;20.898;2023-08-06T13:39:49;24.40;99.90
36654;DHT22;22650;49.350;20.898;2023-08-06T13:42:22;24.40;99.90
36654;DHT22;22650;49.350;20.898;2023-08-06T13:44:56;24.30;99.90
36654;DHT22;22650;49.350;20.898;2023-08-06T13:47:36;24.20;99.90
36654;DHT22;22650;49.350;20.898;2023-08-06T13:50:10;24.30;99.90
36654;DHT22;22650;49.350;20.898;2023-08-06T13:53:03;24.30;99.90
36654;DHT22;22650;49.350;20.898;2023-08-06T13:55:36;24.30;99.90
36654;DHT22;22650;49.350;20.898;2023-08-06T13:58:10;24.20;99.90
36654;DHT22;22650;49.350;20.898;2023-08-06T14:00:44;24.20;99.90
36654;DHT22;22650;49.350;20.898;2023-08-06T14:03:20;24.10;99.90
36654;DHT22;22650;49.350;20.898;2023-08-06T14:05:53;24.00;99.90
36654;DHT22;22650;49.350;20.898;2023-08-06T14:08:28;23.90;99.90
36654;DHT22;22650;49.350;20.898;2023-08-06T14:11:02;23.80;99.90
36654;DHT22;22650;49.350;20.898;2023-08-06T14:13:37;23.60;99.90
36654;DHT22;22650;49.350;20.898;2023-08-06T14:16:10;23.50;99.90
36654;DHT22;22650;49.350;20.898;2023-08-06T14:18:45;23.50;99.90
36654;DHT22;22650;49.350;20.898;2023-08-06T14:21:19;23.30;99.90
36654;DHT22;22650;49.350;20.898;2023-08-06T14:23:53;23.20;99.90
36654;DHT22;22650;49.350;20.898;2023-08-06T14:26:26;23.20;99.90
36654;DHT22;22650;49.350;20.898;2023-08-06T14:29:01;23.20;99.90
36654;DHT22;22650;49.350;20.898;2023-08-06T14:31:34;23.00;99.90
36654;DHT22;22650;49.350;20.898;2023-08-06T14:34:09;22.90;99.90
36654;DHT22;22650;49.350;20.898;2023-08-06T14:36:43;22.70;99.90
36654;DHT22;22650;49.350;20.898;2023-08-06T14:39:17;22.50;99.90
36654;DHT22;22650;49.350;20.898;2023-08-06T14:41:50;22.30;99.90
36654;DHT22;22650;49.350;20.898;2023-08-06T14:44:24;22.20;99.90
36654;DHT22;22650;49.350;20.898;2023-08-06T14:46:58;21.90;99.90
36654;DHT22;22650;49.350;20.898;2023-08-06T14:49:33;21.70;99.90
36654;DHT22;22650;49.350;20.898;2023-08-06T14:52:07;21.40;99.90
36654;DHT22;22650;49.350;20.898;2023-08-06T14:54:40;21.10;99.90
36654;DHT22;22650;49.350;20.898;2023-08-06T14:57:14;20.90;99.90
36654;DHT22;22650;49.350;20.898;2023-08-06T14:59:48;20.60;99.90
36654;DHT22;22650;49.350;20.898;2023-08-06T15:02:22;20.50;99.90
36654;DHT22;22650;49.350;20.898;2023-08-06T15:04:57;20.40;99.90
36654;DHT22;22650;49.350;20.898;2023-08-06T15:07:30;20.10;99.90
36654;DHT22;22650;49.350;20.898;2023-08-06T15:10:07;20.00;99.90
36654;DHT22;22650;49.350;20.898;2023-08-06T15:12:44;19.80;99.90
36654;DHT22;22650;49.350;20.898;2023-08-06T15:15:17;19.60;99.90
36654;DHT22;22650;49.350;20.898;2023-08-06T15:17:52;19.30;99.90
36654;DHT22;22650;49.350;20.898;2023-08-06T15:20:27;19.20;99.90
36654;DHT22;22650;49.350;20.898;2023-08-06T15:23:01;19.00;99.90
36654;DHT22;22650;49.350;20.898;2023-08-06T15:25:35;18.90;99.90
36654;DHT22;22650;49.350;20.898;2023-08-06T15:28:08;18.70;99.90
36654;DHT22;22650;49.350;20.898;2023-08-06T15:30:48;18.60;99.90
36654;DHT22;22650;49.350;20.898;2023-08-06T15:33:23;18.60;99.90
36654;DHT22;22650;49.350;20.898;2023-08-06T15:35:58;18.40;99.90
36654;DHT22;22650;49.350;20.898;2023-08-06T15:38:33;18.30;99.90
36654;DHT22;22650;49.350;20.898;2023-08-06T15:41:08;18.30;99.90
36654;DHT22;22650;49.350;20.898;2023-08-06T15:43:41;18.20;99.90
36654;DHT22;22650;49.350;20.898;2023-08-06T15:46:15;18.20;99.90
36654;DHT22;22650;49.350;20.898;2023-08-06T15:48:48;18.20;99.90
36654;DHT22;22650;49.350;20.898;2023-08-06T15:51:24;18.20;99.90
36654;DHT22;22650;49.350;20.898;2023-08-06T15:54:00;18.20;99.90
36654;DHT22;22650;49.350;20.898;2023-08-06T15:56:33;18.10;99.90
36654;DHT22;22650;49.350;20.898;2023-08-06T15:59:21;18.10;99.90
36654;DHT22;22650;49.350;20.898;2023-08-06T16:01:58;18.10;99.90
36654;DHT22;22650;49.350;20.898;2023-08-06T16:04:35;18.00;99.90
36654;DHT22;22650;49.350;20.898;2023-08-06T16:07:10;18.00;99.90